Las Vegas, Nevada
Traffic Map
Current Weather Conditions
Las Vegas, Nevada
Broken Clouds
Broken Clouds
92°
Feels Like: 92°
Wind Chill: 92° Ceiling: 25000
Heat Index: 92° Visibility: 10mi
Dew Point: 55° Wind: 13mph
Humidity: 29% Direction: 190° (S)
Pressure: 29.86in Gusts: 0mph
Raw Report DataKLAS 020856Z 19011KT 10SM SCT120 BKN250 33/13 A2986 RMK AO2 SLP078 T03330128 53004
Traffic Incident Summary
Active as of:
Severity:
Category:
InformationThere was an issue retrieving the traffic information for this location. Please try a different location or try again shortly.
Advertisements
Track Severe Weather on mobile